sensor_id;sensor_type;location;lat;lon;timestamp;pressure;altitude;pressure_sealevel;temperature;humidity
45050;BME280;61798;48.048;-1.928;2022-08-18T00:01:06;100631.84;;;16.58;90.01
45050;BME280;61798;48.048;-1.928;2022-08-18T00:03:13;100635.41;;;16.70;89.11
45050;BME280;61798;48.048;-1.928;2022-08-18T00:05:20;100634.78;;;16.56;90.10
45050;BME280;61798;48.048;-1.928;2022-08-18T00:07:28;100639.50;;;16.49;90.32
45050;BME280;61798;48.048;-1.928;2022-08-18T00:09:35;100637.97;;;16.65;89.53
45050;BME280;61798;48.048;-1.928;2022-08-18T00:11:43;100631.88;;;16.70;89.03
45050;BME280;61798;48.048;-1.928;2022-08-18T00:13:51;100630.56;;;16.60;90.39
45050;BME280;61798;48.048;-1.928;2022-08-18T00:15:58;100629.63;;;16.43;91.71
45050;BME280;61798;48.048;-1.928;2022-08-18T00:18:04;100626.44;;;16.58;89.78
45050;BME280;61798;48.048;-1.928;2022-08-18T00:20:13;100630.69;;;16.78;88.30
45050;BME280;61798;48.048;-1.928;2022-08-18T00:22:20;100629.38;;;16.56;89.98
45050;BME280;61798;48.048;-1.928;2022-08-18T00:24:28;100631.16;;;16.63;89.46
45050;BME280;61798;48.048;-1.928;2022-08-18T00:26:37;100622.91;;;16.45;90.62
45050;BME280;61798;48.048;-1.928;2022-08-18T00:28:44;100628.09;;;16.59;89.39
45050;BME280;61798;48.048;-1.928;2022-08-18T00:30:51;100630.13;;;16.21;91.82
45050;BME280;61798;48.048;-1.928;2022-08-18T00:32:57;100625.34;;;16.23;91.77
45050;BME280;61798;48.048;-1.928;2022-08-18T00:35:08;100623.13;;;16.32;90.63
45050;BME280;61798;48.048;-1.928;2022-08-18T00:37:15;100629.09;;;16.22;92.01
45050;BME280;61798;48.048;-1.928;2022-08-18T00:39:22;100635.59;;;16.45;90.06
45050;BME280;61798;48.048;-1.928;2022-08-18T00:41:29;100633.75;;;16.57;89.29
45050;BME280;61798;48.048;-1.928;2022-08-18T00:43:42;100637.38;;;16.51;89.27
45050;BME280;61798;48.048;-1.928;2022-08-18T00:45:49;100639.56;;;16.30;89.76
45050;BME280;61798;48.048;-1.928;2022-08-18T00:47:56;100630.31;;;16.50;88.72
45050;BME280;61798;48.048;-1.928;2022-08-18T00:50:03;100627.28;;;16.58;88.83
45050;BME280;61798;48.048;-1.928;2022-08-18T00:52:09;100623.50;;;16.47;89.50
45050;BME280;61798;48.048;-1.928;2022-08-18T00:54:21;100623.97;;;16.56;88.93
45050;BME280;61798;48.048;-1.928;2022-08-18T00:56:30;100624.50;;;16.22;90.94
45050;BME280;61798;48.048;-1.928;2022-08-18T00:58:41;100620.81;;;16.47;89.44
45050;BME280;61798;48.048;-1.928;2022-08-18T01:00:50;100624.91;;;16.38;90.18
45050;BME280;61798;48.048;-1.928;2022-08-18T01:02:57;100625.75;;;16.51;89.26
45050;BME280;61798;48.048;-1.928;2022-08-18T01:05:20;100624.66;;;16.27;90.09
45050;BME280;61798;48.048;-1.928;2022-08-18T01:07:29;100624.31;;;16.05;91.65
45050;BME280;61798;48.048;-1.928;2022-08-18T01:09:38;100619.97;;;16.47;89.52
45050;BME280;61798;48.048;-1.928;2022-08-18T01:11:45;100616.72;;;16.14;91.88
45050;BME280;61798;48.048;-1.928;2022-08-18T01:13:52;100618.66;;;16.37;89.82
45050;BME280;61798;48.048;-1.928;2022-08-18T01:15:59;100623.16;;;16.44;89.45
45050;BME280;61798;48.048;-1.928;2022-08-18T01:18:25;100614.88;;;16.26;90.43
45050;BME280;61798;48.048;-1.928;2022-08-18T01:23:34;100614.56;;;16.04;92.37
45050;BME280;61798;48.048;-1.928;2022-08-18T01:25:42;100613.13;;;16.32;90.14
45050;BME280;61798;48.048;-1.928;2022-08-18T01:28:07;100609.25;;;16.28;90.49
45050;BME280;61798;48.048;-1.928;2022-08-18T01:30:15;100605.34;;;16.12;91.50
45050;BME280;61798;48.048;-1.928;2022-08-18T01:32:23;100607.22;;;16.11;91.61
45050;BME280;61798;48.048;-1.928;2022-08-18T01:34:29;100607.38;;;15.98;92.72
45050;BME280;61798;48.048;-1.928;2022-08-18T01:36:36;100609.31;;;16.09;91.66
45050;BME280;61798;48.048;-1.928;2022-08-18T01:38:44;100608.19;;;16.29;89.64
45050;BME280;61798;48.048;-1.928;2022-08-18T01:40:52;100613.28;;;16.06;91.56
45050;BME280;61798;48.048;-1.928;2022-08-18T01:43:00;100617.44;;;15.90;93.65
45050;BME280;61798;48.048;-1.928;2022-08-18T01:45:12;100618.47;;;16.08;91.13
45050;BME280;61798;48.048;-1.928;2022-08-18T01:47:20;100614.28;;;16.12;91.87
45050;BME280;61798;48.048;-1.928;2022-08-18T01:49:25;100608.44;;;16.09;91.46
45050;BME280;61798;48.048;-1.928;2022-08-18T01:51:35;100610.59;;;15.75;94.59
45050;BME280;61798;48.048;-1.928;2022-08-18T01:53:43;100612.69;;;15.73;95.57
45050;BME280;61798;48.048;-1.928;2022-08-18T01:55:51;100615.94;;;15.63;95.09
45050;BME280;61798;48.048;-1.928;2022-08-18T01:58:00;100617.81;;;15.63;95.42
45050;BME280;61798;48.048;-1.928;2022-08-18T02:00:08;100617.09;;;15.56;94.85
45050;BME280;61798;48.048;-1.928;2022-08-18T02:02:17;100617.53;;;15.52;95.31
45050;BME280;61798;48.048;-1.928;2022-08-18T02:04:26;100622.94;;;15.52;95.24
45050;BME280;61798;48.048;-1.928;2022-08-18T02:06:34;100620.47;;;15.51;95.15
45050;BME280;61798;48.048;-1.928;2022-08-18T02:08:41;100620.78;;;15.92;92.12
45050;BME280;61798;48.048;-1.928;2022-08-18T02:10:48;100621.41;;;15.75;90.73
45050;BME280;61798;48.048;-1.928;2022-08-18T02:12:54;100624.94;;;15.76;92.15
45050;BME280;61798;48.048;-1.928;2022-08-18T02:14:59;100630.06;;;16.09;90.75
45050;BME280;61798;48.048;-1.928;2022-08-18T02:17:07;100629.81;;;15.98;91.16
45050;BME280;61798;48.048;-1.928;2022-08-18T02:19:14;100635.22;;;15.98;91.55
45050;BME280;61798;48.048;-1.928;2022-08-18T02:21:21;100635.22;;;15.98;91.62
45050;BME280;61798;48.048;-1.928;2022-08-18T02:23:28;100642.09;;;16.13;91.04
45050;BME280;61798;48.048;-1.928;2022-08-18T02:25:35;100634.06;;;16.37;89.74
45050;BME280;61798;48.048;-1.928;2022-08-18T02:27:43;100640.88;;;16.27;90.30
45050;BME280;61798;48.048;-1.928;2022-08-18T02:29:51;100633.78;;;16.14;91.64
45050;BME280;61798;48.048;-1.928;2022-08-18T02:31:58;100641.00;;;16.02;91.87
45050;BME280;61798;48.048;-1.928;2022-08-18T02:34:05;100639.91;;;16.22;90.64
45050;BME280;61798;48.048;-1.928;2022-08-18T02:36:12;100639.88;;;16.10;91.88
45050;BME280;61798;48.048;-1.928;2022-08-18T02:38:19;100645.44;;;16.27;90.64
45050;BME280;61798;48.048;-1.928;2022-08-18T02:40:26;100644.38;;;16.16;91.45
45050;BME280;61798;48.048;-1.928;2022-08-18T02:42:34;100645.31;;;16.22;91.81
45050;BME280;61798;48.048;-1.928;2022-08-18T02:44:41;100642.41;;;16.23;91.16
45050;BME280;61798;48.048;-1.928;2022-08-18T02:46:52;100636.88;;;16.30;90.60
45050;BME280;61798;48.048;-1.928;2022-08-18T02:49:00;100641.69;;;16.28;90.43
45050;BME280;61798;48.048;-1.928;2022-08-18T02:51:09;100635.34;;;16.34;90.57
45050;BME280;61798;48.048;-1.928;2022-08-18T02:53:16;100633.84;;;16.07;92.05
45050;BME280;61798;48.048;-1.928;2022-08-18T02:55:30;100626.63;;;16.20;90.97
45050;BME280;61798;48.048;-1.928;2022-08-18T02:57:46;100630.38;;;15.88;92.94
45050;BME280;61798;48.048;-1.928;2022-08-18T02:59:54;100635.38;;;16.03;92.29
45050;BME280;61798;48.048;-1.928;2022-08-18T03:02:01;100637.16;;;16.10;91.97
45050;BME280;61798;48.048;-1.928;2022-08-18T03:04:09;100642.03;;;16.20;91.05
45050;BME280;61798;48.048;-1.928;2022-08-18T03:06:17;100637.31;;;16.15;90.96
45050;BME280;61798;48.048;-1.928;2022-08-18T03:08:24;100638.44;;;16.07;91.73
45050;BME280;61798;48.048;-1.928;2022-08-18T03:10:31;100637.34;;;15.96;92.47
45050;BME280;61798;48.048;-1.928;2022-08-18T03:12:38;100629.00;;;16.41;89.34
45050;BME280;61798;48.048;-1.928;2022-08-18T03:14:47;100629.25;;;16.39;89.93
45050;BME280;61798;48.048;-1.928;2022-08-18T03:16:54;100627.03;;;16.36;90.29
45050;BME280;61798;48.048;-1.928;2022-08-18T03:19:02;100628.97;;;16.28;90.82
45050;BME280;61798;48.048;-1.928;2022-08-18T03:21:10;100634.06;;;16.49;89.36
45050;BME280;61798;48.048;-1.928;2022-08-18T03:23:16;100636.41;;;16.33;90.20
45050;BME280;61798;48.048;-1.928;2022-08-18T03:25:22;100652.22;;;16.17;91.73
45050;BME280;61798;48.048;-1.928;2022-08-18T03:27:29;100640.16;;;16.20;91.32
45050;BME280;61798;48.048;-1.928;2022-08-18T03:29:36;100645.56;;;16.32;91.04
45050;BME280;61798;48.048;-1.928;2022-08-18T03:31:43;100645.31;;;16.22;90.86
45050;BME280;61798;48.048;-1.928;2022-08-18T03:33:50;100647.56;;;16.25;90.67
45050;BME280;61798;48.048;-1.928;2022-08-18T03:36:08;100640.63;;;16.29;90.79
45050;BME280;61798;48.048;-1.928;2022-08-18T03:38:15;100649.72;;;16.04;92.89
45050;BME280;61798;48.048;-1.928;2022-08-18T03:40:22;100646.31;;;16.40;90.18
45050;BME280;61798;48.048;-1.928;2022-08-18T03:42:29;100639.91;;;16.22;91.75
45050;BME280;61798;48.048;-1.928;2022-08-18T03:44:36;100641.69;;;16.28;90.95
45050;BME280;61798;48.048;-1.928;2022-08-18T03:46:43;100637.44;;;16.32;90.25
45050;BME280;61798;48.048;-1.928;2022-08-18T03:48:50;100623.59;;;16.41;90.21
45050;BME280;61798;48.048;-1.928;2022-08-18T03:51:05;100641.00;;;16.02;93.19
45050;BME280;61798;48.048;-1.928;2022-08-18T03:53:13;100644.69;;;15.89;95.55
45050;BME280;61798;48.048;-1.928;2022-08-18T03:55:20;100646.66;;;15.81;95.68
45050;BME280;61798;48.048;-1.928;2022-08-18T03:57:27;100642.09;;;15.82;96.08
45050;BME280;61798;48.048;-1.928;2022-08-18T03:59:35;100647.53;;;15.94;93.90
45050;BME280;61798;48.048;-1.928;2022-08-18T04:01:41;100645.97;;;15.86;95.01
45050;BME280;61798;48.048;-1.928;2022-08-18T04:03:49;100634.13;;;15.87;94.51
45050;BME280;61798;48.048;-1.928;2022-08-18T04:05:56;100642.50;;;15.98;92.97
45050;BME280;61798;48.048;-1.928;2022-08-18T04:08:03;100628.66;;;16.37;90.00
45050;BME280;61798;48.048;-1.928;2022-08-18T04:10:12;100633.25;;;16.48;89.08
45050;BME280;61798;48.048;-1.928;2022-08-18T04:12:19;100633.63;;;16.40;89.68
45050;BME280;61798;48.048;-1.928;2022-08-18T04:14:26;100631.25;;;16.32;90.00
45050;BME280;61798;48.048;-1.928;2022-08-18T04:16:37;100634.50;;;16.22;90.26
45050;BME280;61798;48.048;-1.928;2022-08-18T04:18:44;100639.69;;;16.04;92.47
45050;BME280;61798;48.048;-1.928;2022-08-18T04:20:51;100648.94;;;15.96;92.99
45050;BME280;61798;48.048;-1.928;2022-08-18T04:22:57;100646.19;;;15.72;95.42
45050;BME280;61798;48.048;-1.928;2022-08-18T04:25:03;100654.50;;;15.71;96.09
45050;BME280;61798;48.048;-1.928;2022-08-18T04:27:09;100646.59;;;15.88;96.11
45050;BME280;61798;48.048;-1.928;2022-08-18T04:29:17;100649.50;;;15.86;94.27
45050;BME280;61798;48.048;-1.928;2022-08-18T04:31:27;100652.38;;;16.23;91.78
45050;BME280;61798;48.048;-1.928;2022-08-18T04:33:34;100652.78;;;16.07;92.30
45050;BME280;61798;48.048;-1.928;2022-08-18T04:35:41;100654.25;;;15.91;94.11
45050;BME280;61798;48.048;-1.928;2022-08-18T04:37:49;100660.41;;;15.80;95.14
45050;BME280;61798;48.048;-1.928;2022-08-18T04:39:55;100661.97;;;15.88;94.94
45050;BME280;61798;48.048;-1.928;2022-08-18T04:42:02;100662.97;;;15.74;94.72
45050;BME280;61798;48.048;-1.928;2022-08-18T04:44:09;100659.44;;;15.74;95.00
45050;BME280;61798;48.048;-1.928;2022-08-18T04:46:17;100658.13;;;15.95;93.60
45050;BME280;61798;48.048;-1.928;2022-08-18T04:48:24;100663.50;;;16.14;91.79
45050;BME280;61798;48.048;-1.928;2022-08-18T04:50:31;100656.78;;;16.36;90.12
45050;BME280;61798;48.048;-1.928;2022-08-18T04:52:38;100660.06;;;16.38;89.84
45050;BME280;61798;48.048;-1.928;2022-08-18T04:55:04;100665.38;;;16.14;91.67
45050;BME280;61798;48.048;-1.928;2022-08-18T04:57:14;100663.78;;;16.25;90.87
45050;BME280;61798;48.048;-1.928;2022-08-18T04:59:21;100668.25;;;16.19;91.95
45050;BME280;61798;48.048;-1.928;2022-08-18T05:01:29;100662.69;;;16.14;92.07
45050;BME280;61798;48.048;-1.928;2022-08-18T05:03:36;100663.78;;;16.25;91.20
45050;BME280;61798;48.048;-1.928;2022-08-18T05:05:43;100662.63;;;16.33;90.36
45050;BME280;61798;48.048;-1.928;2022-08-18T05:07:51;100670.50;;;16.34;90.87
45050;BME280;61798;48.048;-1.928;2022-08-18T05:09:57;100667.88;;;16.15;92.00
45050;BME280;61798;48.048;-1.928;2022-08-18T05:12:03;100671.22;;;16.42;89.91
45050;BME280;61798;48.048;-1.928;2022-08-18T05:14:10;100668.66;;;16.47;89.96
45050;BME280;61798;48.048;-1.928;2022-08-18T05:16:15;100671.19;;;16.30;91.60
45050;BME280;61798;48.048;-1.928;2022-08-18T05:18:21;100679.69;;;16.45;90.20
45050;BME280;61798;48.048;-1.928;2022-08-18T05:20:29;100671.88;;;16.25;92.90
45050;BME280;61798;48.048;-1.928;2022-08-18T05:22:40;100675.91;;;16.34;91.40
45050;BME280;61798;48.048;-1.928;2022-08-18T05:24:47;100680.75;;;16.44;91.37
45050;BME280;61798;48.048;-1.928;2022-08-18T05:26:54;100677.09;;;16.38;92.11
45050;BME280;61798;48.048;-1.928;2022-08-18T05:29:01;100679.28;;;16.17;94.16
45050;BME280;61798;48.048;-1.928;2022-08-18T05:31:10;100682.25;;;16.28;93.06
45050;BME280;61798;48.048;-1.928;2022-08-18T05:33:18;100678.28;;;16.43;91.45
45050;BME280;61798;48.048;-1.928;2022-08-18T05:35:25;100688.16;;;16.37;91.95
45050;BME280;61798;48.048;-1.928;2022-08-18T05:37:44;100690.59;;;16.26;92.83
45050;BME280;61798;48.048;-1.928;2022-08-18T05:39:57;100697.00;;;16.13;94.48
45050;BME280;61798;48.048;-1.928;2022-08-18T05:42:14;100694.44;;;16.19;93.43
45050;BME280;61798;48.048;-1.928;2022-08-18T05:44:25;100699.56;;;16.39;91.33
45050;BME280;61798;48.048;-1.928;2022-08-18T05:46:51;100706.63;;;16.09;94.42
45050;BME280;61798;48.048;-1.928;2022-08-18T05:48:58;100712.28;;;16.51;90.67
45050;BME280;61798;48.048;-1.928;2022-08-18T05:51:13;100714.66;;;16.47;91.51
45050;BME280;61798;48.048;-1.928;2022-08-18T05:53:21;100711.84;;;16.23;91.86
45050;BME280;61798;48.048;-1.928;2022-08-18T05:56:08;100712.69;;;16.23;91.73
45050;BME280;61798;48.048;-1.928;2022-08-18T05:58:38;100718.09;;;16.23;91.96
45050;BME280;61798;48.048;-1.928;2022-08-18T06:00:50;100710.06;;;16.16;93.78
45050;BME280;61798;48.048;-1.928;2022-08-18T06:03:34;100721.59;;;16.12;95.85
45050;BME280;61798;48.048;-1.928;2022-08-18T06:05:40;100724.50;;;16.10;95.10
45050;BME280;61798;48.048;-1.928;2022-08-18T06:07:52;100726.59;;;16.08;95.68
45050;BME280;61798;48.048;-1.928;2022-08-18T06:10:00;100728.50;;;16.38;91.70
45050;BME280;61798;48.048;-1.928;2022-08-18T06:12:11;100728.75;;;16.49;90.00
45050;BME280;61798;48.048;-1.928;2022-08-18T06:14:37;100733.91;;;16.38;94.19
45050;BME280;61798;48.048;-1.928;2022-08-18T06:17:02;100738.28;;;16.21;95.60
45050;BME280;61798;48.048;-1.928;2022-08-18T06:24:44;100727.88;;;16.36;94.32
45050;BME280;61798;48.048;-1.928;2022-08-18T06:31:19;100731.50;;;16.73;89.95
45050;BME280;61798;48.048;-1.928;2022-08-18T06:33:44;100728.09;;;16.66;91.16
45050;BME280;61798;48.048;-1.928;2022-08-18T06:35:54;100739.28;;;16.81;89.64
45050;BME280;61798;48.048;-1.928;2022-08-18T06:40:51;100741.53;;;16.85;89.42
45050;BME280;61798;48.048;-1.928;2022-08-18T06:43:06;100740.28;;;16.99;88.97
45050;BME280;61798;48.048;-1.928;2022-08-18T06:45:14;100746.03;;;16.91;89.17
45050;BME280;61798;48.048;-1.928;2022-08-18T06:49:48;100746.84;;;16.79;91.65
45050;BME280;61798;48.048;-1.928;2022-08-18T06:51:57;100749.06;;;16.83;91.65
45050;BME280;61798;48.048;-1.928;2022-08-18T06:54:04;100741.41;;;16.79;91.44
45050;BME280;61798;48.048;-1.928;2022-08-18T06:56:23;100748.75;;;17.03;89.47
45050;BME280;61798;48.048;-1.928;2022-08-18T06:58:30;100738.81;;;16.85;91.68
45050;BME280;61798;48.048;-1.928;2022-08-18T07:00:37;100741.56;;;17.09;89.97
45050;BME280;61798;48.048;-1.928;2022-08-18T07:02:51;100737.84;;;17.22;90.33
45050;BME280;61798;48.048;-1.928;2022-08-18T07:05:34;100742.91;;;17.30;87.98
45050;BME280;61798;48.048;-1.928;2022-08-18T07:07:39;100733.34;;;17.40;87.55
45050;BME280;61798;48.048;-1.928;2022-08-18T07:09:46;100735.09;;;17.46;90.12
45050;BME280;61798;48.048;-1.928;2022-08-18T07:12:07;100729.81;;;17.39;89.83
45050;BME280;61798;48.048;-1.928;2022-08-18T07:14:21;100725.69;;;17.25;90.19
45050;BME280;61798;48.048;-1.928;2022-08-18T07:16:31;100732.41;;;17.46;88.48
45050;BME280;61798;48.048;-1.928;2022-08-18T07:18:37;100738.66;;;17.47;88.79
45050;BME280;61798;48.048;-1.928;2022-08-18T07:20:46;100742.63;;;17.44;88.44
45050;BME280;61798;48.048;-1.928;2022-08-18T07:22:53;100746.06;;;17.51;87.84
45050;BME280;61798;48.048;-1.928;2022-08-18T07:25:00;100756.78;;;17.58;89.01
45050;BME280;61798;48.048;-1.928;2022-08-18T07:27:14;100750.66;;;17.63;88.03
45050;BME280;61798;48.048;-1.928;2022-08-18T07:29:23;100753.78;;;17.72;88.27
45050;BME280;61798;48.048;-1.928;2022-08-18T07:31:41;100760.03;;;17.72;87.72
45050;BME280;61798;48.048;-1.928;2022-08-18T07:34:11;100758.53;;;17.52;89.53
45050;BME280;61798;48.048;-1.928;2022-08-18T07:36:18;100763.91;;;17.76;88.29
45050;BME280;61798;48.048;-1.928;2022-08-18T07:38:39;100765.94;;;17.69;89.50
45050;BME280;61798;48.048;-1.928;2022-08-18T07:40:51;100758.75;;;17.75;88.12
45050;BME280;61798;48.048;-1.928;2022-08-18T07:43:20;100767.59;;;17.70;88.84
45050;BME280;61798;48.048;-1.928;2022-08-18T07:50:05;100759.53;;;17.88;87.64
45050;BME280;61798;48.048;-1.928;2022-08-18T07:52:14;100767.44;;;17.89;87.79
45050;BME280;61798;48.048;-1.928;2022-08-18T07:54:35;100772.25;;;17.99;87.85
45050;BME280;61798;48.048;-1.928;2022-08-18T08:06:35;100788.34;;;18.18;87.05
45050;BME280;61798;48.048;-1.928;2022-08-18T08:11:13;100787.34;;;18.36;86.65
45050;BME280;61798;48.048;-1.928;2022-08-18T08:15:30;100784.44;;;18.55;87.02
45050;BME280;61798;48.048;-1.928;2022-08-18T08:18:02;100779.53;;;18.69;85.28
45050;BME280;61798;48.048;-1.928;2022-08-18T08:29:59;100777.09;;;18.85;84.04
45050;BME280;61798;48.048;-1.928;2022-08-18T08:32:10;100776.25;;;18.85;84.05
45050;BME280;61798;48.048;-1.928;2022-08-18T08:34:26;100783.16;;;18.92;84.02
45050;BME280;61798;48.048;-1.928;2022-08-18T08:36:38;100784.91;;;18.99;84.18
45050;BME280;61798;48.048;-1.928;2022-08-18T08:38:54;100790.91;;;19.01;83.94
45050;BME280;61798;48.048;-1.928;2022-08-18T08:41:07;100783.75;;;18.95;84.90
45050;BME280;61798;48.048;-1.928;2022-08-18T08:43:18;100781.28;;;18.93;84.04
45050;BME280;61798;48.048;-1.928;2022-08-18T08:45:31;100785.22;;;18.85;83.94
45050;BME280;61798;48.048;-1.928;2022-08-18T08:47:54;100784.72;;;18.88;85.27
45050;BME280;61798;48.048;-1.928;2022-08-18T08:50:18;100786.78;;;18.81;84.24
45050;BME280;61798;48.048;-1.928;2022-08-18T08:57:00;100786.13;;;19.08;82.79
45050;BME280;61798;48.048;-1.928;2022-08-18T08:59:09;100797.03;;;19.26;82.52
45050;BME280;61798;48.048;-1.928;2022-08-18T09:01:24;100797.50;;;19.40;81.57
45050;BME280;61798;48.048;-1.928;2022-08-18T09:05:54;100794.75;;;19.57;81.95
45050;BME280;61798;48.048;-1.928;2022-08-18T09:22:53;100809.28;;;19.85;80.16
45050;BME280;61798;48.048;-1.928;2022-08-18T09:27:48;100809.28;;;20.08;79.86
45050;BME280;61798;48.048;-1.928;2022-08-18T09:29:59;100805.81;;;19.90;79.41
45050;BME280;61798;48.048;-1.928;2022-08-18T09:37:11;100808.22;;;20.59;77.70
45050;BME280;61798;48.048;-1.928;2022-08-18T09:39:44;100809.88;;;20.60;76.68
45050;BME280;61798;48.048;-1.928;2022-08-18T09:46:57;100802.03;;;20.97;76.02
45050;BME280;61798;48.048;-1.928;2022-08-18T09:51:42;100794.59;;;20.59;76.43
45050;BME280;61798;48.048;-1.928;2022-08-18T09:54:16;100791.03;;;20.54;76.08
45050;BME280;61798;48.048;-1.928;2022-08-18T09:58:52;100797.38;;;20.65;74.81
45050;BME280;61798;48.048;-1.928;2022-08-18T10:03:22;100804.97;;;20.63;74.52
45050;BME280;61798;48.048;-1.928;2022-08-18T10:05:29;100809.28;;;20.86;75.56
45050;BME280;61798;48.048;-1.928;2022-08-18T10:07:37;100808.97;;;20.82;73.84
45050;BME280;61798;48.048;-1.928;2022-08-18T10:14:21;100813.53;;;21.38;73.78
45050;BME280;61798;48.048;-1.928;2022-08-18T10:16:32;100812.06;;;21.24;73.10
45050;BME280;61798;48.048;-1.928;2022-08-18T10:26:01;100805.16;;;21.50;72.04
45050;BME280;61798;48.048;-1.928;2022-08-18T10:28:08;100809.00;;;21.59;71.65
45050;BME280;61798;48.048;-1.928;2022-08-18T10:32:38;100812.25;;;22.00;70.01
45050;BME280;61798;48.048;-1.928;2022-08-18T10:34:50;100813.13;;;22.21;69.33
45050;BME280;61798;48.048;-1.928;2022-08-18T10:37:10;100813.44;;;22.46;67.20
45050;BME280;61798;48.048;-1.928;2022-08-18T10:39:20;100819.44;;;22.37;67.73
45050;BME280;61798;48.048;-1.928;2022-08-18T10:41:28;100818.06;;;22.35;68.63
45050;BME280;61798;48.048;-1.928;2022-08-18T10:43:36;100825.75;;;22.43;68.96
45050;BME280;61798;48.048;-1.928;2022-08-18T10:45:48;100818.13;;;22.45;68.19
45050;BME280;61798;48.048;-1.928;2022-08-18T10:50:19;100823.59;;;22.56;67.64
45050;BME280;61798;48.048;-1.928;2022-08-18T10:52:45;100822.53;;;22.73;66.48
45050;BME280;61798;48.048;-1.928;2022-08-18T10:57:11;100820.84;;;22.56;66.03
45050;BME280;61798;48.048;-1.928;2022-08-18T11:06:05;100820.56;;;22.57;66.59
45050;BME280;61798;48.048;-1.928;2022-08-18T11:08:15;100826.06;;;22.68;65.31
45050;BME280;61798;48.048;-1.928;2022-08-18T11:10:22;100825.75;;;22.48;66.11
45050;BME280;61798;48.048;-1.928;2022-08-18T11:14:51;100815.19;;;22.94;64.21
45050;BME280;61798;48.048;-1.928;2022-08-18T11:19:10;100814.91;;;22.96;63.90
45050;BME280;61798;48.048;-1.928;2022-08-18T11:21:24;100819.00;;;22.88;63.66
45050;BME280;61798;48.048;-1.928;2022-08-18T11:23:34;100811.06;;;22.86;62.92
45050;BME280;61798;48.048;-1.928;2022-08-18T11:25:40;100820.34;;;23.27;61.82
45050;BME280;61798;48.048;-1.928;2022-08-18T11:27:47;100826.66;;;22.80;61.07
45050;BME280;61798;48.048;-1.928;2022-08-18T11:29:53;100822.28;;;23.32;61.71
45050;BME280;61798;48.048;-1.928;2022-08-18T11:34:12;100813.03;;;24.05;61.10
45050;BME280;61798;48.048;-1.928;2022-08-18T11:36:28;100808.31;;;24.21;60.90
45050;BME280;61798;48.048;-1.928;2022-08-18T11:38:33;100812.41;;;24.24;60.75
45050;BME280;61798;48.048;-1.928;2022-08-18T11:40:42;100797.31;;;24.32;59.92
45050;BME280;61798;48.048;-1.928;2022-08-18T11:42:52;100809.59;;;23.73;60.96
45050;BME280;61798;48.048;-1.928;2022-08-18T11:45:04;100803.34;;;23.67;61.88
45050;BME280;61798;48.048;-1.928;2022-08-18T11:47:15;100804.50;;;23.13;63.33
45050;BME280;61798;48.048;-1.928;2022-08-18T11:49:30;100800.41;;;23.11;63.26
45050;BME280;61798;48.048;-1.928;2022-08-18T11:51:51;100807.25;;;22.87;61.92
45050;BME280;61798;48.048;-1.928;2022-08-18T11:53:59;100808.25;;;23.75;60.03
45050;BME280;61798;48.048;-1.928;2022-08-18T11:56:10;100819.25;;;23.33;60.77
45050;BME280;61798;48.048;-1.928;2022-08-18T11:58:38;100818.75;;;23.21;60.82
45050;BME280;61798;48.048;-1.928;2022-08-18T12:02:59;100822.97;;;23.85;59.84
45050;BME280;61798;48.048;-1.928;2022-08-18T12:05:05;100825.38;;;23.97;59.39
45050;BME280;61798;48.048;-1.928;2022-08-18T12:07:15;100822.03;;;24.16;59.47
45050;BME280;61798;48.048;-1.928;2022-08-18T12:09:38;100820.72;;;24.08;59.13
45050;BME280;61798;48.048;-1.928;2022-08-18T12:11:55;100825.63;;;24.11;59.43
45050;BME280;61798;48.048;-1.928;2022-08-18T12:14:06;100818.84;;;24.49;58.92
45050;BME280;61798;48.048;-1.928;2022-08-18T12:16:17;100813.31;;;24.59;58.45
45050;BME280;61798;48.048;-1.928;2022-08-18T12:18:34;100827.38;;;24.82;58.63
45050;BME280;61798;48.048;-1.928;2022-08-18T12:20:40;100822.03;;;25.02;57.95
45050;BME280;61798;48.048;-1.928;2022-08-18T12:22:47;100826.47;;;24.57;59.43
45050;BME280;61798;48.048;-1.928;2022-08-18T12:24:55;100825.41;;;24.53;59.38
45050;BME280;61798;48.048;-1.928;2022-08-18T12:27:01;100823.56;;;24.38;59.41
45050;BME280;61798;48.048;-1.928;2022-08-18T12:29:09;100835.75;;;24.11;59.82
45050;BME280;61798;48.048;-1.928;2022-08-18T12:31:15;100834.97;;;24.00;60.48
45050;BME280;61798;48.048;-1.928;2022-08-18T12:33:22;100831.34;;;24.09;60.42
45050;BME280;61798;48.048;-1.928;2022-08-18T12:35:28;100830.97;;;23.71;60.36
45050;BME280;61798;48.048;-1.928;2022-08-18T12:37:34;100840.25;;;23.70;61.22
45050;BME280;61798;48.048;-1.928;2022-08-18T12:39:39;100832.09;;;24.36;58.99
45050;BME280;61798;48.048;-1.928;2022-08-18T12:41:45;100832.00;;;24.52;59.44
45050;BME280;61798;48.048;-1.928;2022-08-18T12:43:51;100842.75;;;24.33;58.97
45050;BME280;61798;48.048;-1.928;2022-08-18T12:45:58;100845.63;;;24.01;59.83
45050;BME280;61798;48.048;-1.928;2022-08-18T12:48:06;100849.69;;;24.14;60.49
45050;BME280;61798;48.048;-1.928;2022-08-18T12:50:13;100848.28;;;24.22;59.15
45050;BME280;61798;48.048;-1.928;2022-08-18T12:52:20;100849.75;;;24.04;59.21
45050;BME280;61798;48.048;-1.928;2022-08-18T12:54:26;100844.03;;;24.56;58.67
45050;BME280;61798;48.048;-1.928;2022-08-18T12:56:32;100852.03;;;24.88;58.24
45050;BME280;61798;48.048;-1.928;2022-08-18T12:58:38;100847.56;;;24.97;57.85
45050;BME280;61798;48.048;-1.928;2022-08-18T13:00:44;100847.06;;;24.49;57.62
45050;BME280;61798;48.048;-1.928;2022-08-18T13:02:51;100843.38;;;24.70;56.96
45050;BME280;61798;48.048;-1.928;2022-08-18T13:04:57;100847.84;;;24.55;57.10
45050;BME280;61798;48.048;-1.928;2022-08-18T13:07:04;100852.09;;;24.21;57.97
45050;BME280;61798;48.048;-1.928;2022-08-18T13:09:13;100847.84;;;23.94;58.11
45050;BME280;61798;48.048;-1.928;2022-08-18T13:11:20;100851.53;;;24.35;57.61
45050;BME280;61798;48.048;-1.928;2022-08-18T13:13:27;100848.44;;;24.52;54.65
45050;BME280;61798;48.048;-1.928;2022-08-18T13:15:34;100853.63;;;24.89;55.52